TimeCST,TemperatureF,Dew PointF,Humidity,Sea Level PressureIn,VisibilityMPH,Wind Direction,Wind SpeedMPH,Gust SpeedMPH,PrecipitationIn,Events,Conditions,WindDirDegrees,DateUTC
12:53 AM,36.0,28.0,73,30.31,10.0,Calm,Calm,-,N/A,,Clear,0,2013-02-02 06:53:00
1:53 AM,34.0,28.0,79,30.29,10.0,Calm,Calm,-,N/A,,Clear,0,2013-02-02 07:53:00
2:53 AM,35.6,28.4,75,30.28,10.0,South,4.6,-,N/A,,Clear,170,2013-02-02 08:53:00
3:53 AM,37.0,28.0,70,30.26,10.0,South,3.5,-,N/A,,Clear,180,2013-02-02 09:53:00
4:53 AM,37.9,30.0,73,30.25,10.0,SSE,3.5,-,N/A,,Clear,150,2013-02-02 10:53:00
5:53 AM,37.4,30.2,75,30.24,10.0,South,4.6,-,N/A,,Clear,180,2013-02-02 11:53:00
6:53 AM,37.9,32.0,79,30.26,10.0,South,3.5,-,N/A,,Clear,180,2013-02-02 12:53:00
7:53 AM,41.0,34.0,76,30.26,10.0,South,4.6,-,N/A,,Clear,180,2013-02-02 13:53:00
8:53 AM,48.0,39.0,71,30.26,10.0,SW,6.9,-,N/A,,Clear,220,2013-02-02 14:53:00
9:53 AM,55.0,42.1,62,30.26,10.0,SSW,13.8,-,N/A,,Clear,210,2013-02-02 15:53:00
10:53 AM,64.0,46.0,52,30.24,10.0,SW,13.8,17.3,N/A,,Clear,230,2013-02-02 16:53:00
11:53 AM,66.0,46.0,48,30.23,10.0,West,19.6,25.3,N/A,,Clear,280,2013-02-02 17:53:00
12:53 PM,70.0,46.0,42,30.19,10.0,West,12.7,23.0,N/A,,Scattered Clouds,260,2013-02-02 18:53:00
1:53 PM,70.0,46.0,42,30.17,10.0,WNW,21.9,28.8,N/A,,Partly Cloudy,290,2013-02-02 19:53:00
2:53 PM,66.9,46.0,47,30.17,10.0,NW,15.0,-,N/A,,Overcast,310,2013-02-02 20:53:00
3:53 PM,66.9,46.0,47,30.17,10.0,North,11.5,-,N/A,,Mostly Cloudy,360,2013-02-02 21:53:00
4:53 PM,66.0,48.0,52,30.17,10.0,North,6.9,-,N/A,,Clear,350,2013-02-02 22:53:00
5:53 PM,60.1,46.0,60,30.19,10.0,NNE,5.8,-,N/A,,Clear,20,2013-02-02 23:53:00
6:53 PM,57.0,45.0,64,30.21,10.0,NE,4.6,-,N/A,,Partly Cloudy,40,2013-02-03 00:53:00
7:53 PM,53.1,44.1,71,30.23,10.0,Calm,Calm,-,N/A,,Clear,0,2013-02-03 01:53:00
8:53 PM,48.9,44.1,83,30.25,10.0,Calm,Calm,-,N/A,,Clear,0,2013-02-03 02:53:00
9:53 PM,46.0,43.0,89,30.25,5.0,Calm,Calm,-,N/A,,Clear,0,2013-02-03 03:53:00
10:53 PM,42.1,39.9,92,30.26,7.0,Calm,Calm,-,N/A,,Clear,0,2013-02-03 04:53:00
11:15 PM,42.8,42.8,100,30.27,2.5,Calm,Calm,-,N/A,,Clear,0,2013-02-03 05:15:00
11:23 PM,42.8,41.0,93,30.27,5.0,Calm,Calm,-,N/A,,Clear,0,2013-02-03 05:23:00
11:53 PM,45.0,41.0,86,30.27,6.0,Calm,Calm,-,N/A,,Clear,0,2013-02-03 05:53:00